Time;durP1;ratioP1;P1;durP2;ratioP2;P2;SDS_P1;SDS_P2;PMS_P1;PMS_P2;Temp;Humidity;BMP_temperature;BMP_pressure;BME280_temperature;BME280_humidity;BME280_pressure;Samples;Min_cycle;Max_cycle;Signal;HPM_P1;HPM_P2
2023/03/10 00:01:13;;;;;;;33.33;25.47;;;0.90;74.10;;;;;;5024003;28;20467;-57
2023/03/10 00:03:40;;;;;;;32.53;24.93;;;0.90;74.30;;;;;;5028120;28;20459;-55
2023/03/10 00:06:08;;;;;;;31.83;23.70;;;1.00;74.30;;;;;;5031998;28;20470;-55
2023/03/10 00:08:35;;;;;;;29.23;22.43;;;1.00;74.00;;;;;;5034637;28;20517;-55
2023/03/10 00:11:05;;;;;;;32.13;24.63;;;1.10;73.70;;;;;;5035068;28;20458;-56
2023/03/10 00:13:32;;;;;;;33.87;25.20;;;1.10;73.30;;;;;;5028475;28;20929;-54
2023/03/10 00:15:58;;;;;;;33.47;24.63;;;1.10;73.00;;;;;;5030907;28;20475;-54
2023/03/10 00:18:25;;;;;;;33.03;24.60;;;1.10;72.80;;;;;;5031991;28;20522;-55
2023/03/10 00:20:52;;;;;;;31.33;23.83;;;1.10;72.90;;;;;;5033058;28;20540;-56
2023/03/10 00:23:19;;;;;;;34.97;24.07;;;1.10;72.80;;;;;;5033754;28;21062;-55
2023/03/10 00:25:53;;;;;;;29.50;22.83;;;1.10;72.60;;;;;;5033308;28;20495;-55
2023/03/10 00:28:21;;;;;;;27.30;21.57;;;1.10;72.60;;;;;;5015914;28;20492;-55
2023/03/10 00:30:57;;;;;;;28.23;21.80;;;1.10;72.80;;;;;;5028644;28;20471;-56
2023/03/10 00:33:24;;;;;;;28.77;21.63;;;1.10;72.50;;;;;;5024559;28;20521;-57
2023/03/10 00:36:00;;;;;;;28.17;22.30;;;1.10;72.50;;;;;;5032213;28;20463;-56
2023/03/10 00:38:27;;;;;;;24.37;21.00;;;1.10;72.50;;;;;;5024749;28;20549;-56
2023/03/10 00:40:58;;;;;;;29.00;21.73;;;1.10;72.60;;;;;;5027906;28;20521;-56
2023/03/10 00:43:26;;;;;;;25.07;20.57;;;1.00;73.10;;;;;;5034410;28;20512;-54
2023/03/10 00:45:52;;;;;;;29.07;21.83;;;1.00;73.50;;;;;;5031897;28;20470;-54
2023/03/10 00:48:19;;;;;;;29.97;22.17;;;1.00;73.50;;;;;;5027995;28;20475;-53
2023/03/10 00:50:46;;;;;;;28.60;21.40;;;1.00;73.60;;;;;;5030779;28;20466;-56
2023/03/10 00:53:12;;;;;;;27.73;20.90;;;1.00;73.60;;;;;;5026716;28;20463;-55
2023/03/10 00:55:39;;;;;;;27.67;21.10;;;1.00;73.40;;;;;;5027702;28;20463;-56
2023/03/10 00:58:05;;;;;;;23.50;19.40;;;1.00;73.40;;;;;;5032873;28;20849;-55
2023/03/10 01:00:33;;;;;;;25.80;19.47;;;1.00;73.30;;;;;;5031947;28;20528;-55
2023/03/10 01:03:00;;;;;;;25.93;20.40;;;1.00;73.50;;;;;;5031253;28;20460;-55
2023/03/10 01:05:27;;;;;;;27.63;20.80;;;1.00;73.30;;;;;;5033535;28;20727;-56
2023/03/10 01:07:54;;;;;;;24.10;19.30;;;1.00;73.10;;;;;;5027935;28;20479;-54
2023/03/10 01:10:21;;;;;;;24.63;20.20;;;1.10;72.80;;;;;;5032216;28;20491;-55
2023/03/10 01:12:47;;;;;;;22.70;19.73;;;1.10;72.70;;;;;;5027968;28;20462;-55
2023/03/10 01:15:14;;;;;;;25.33;20.33;;;1.10;72.70;;;;;;5026617;28;20467;-56
2023/03/10 01:17:42;;;;;;;23.73;19.17;;;1.00;72.80;;;;;;5027207;28;20519;-55
2023/03/10 01:20:13;;;;;;;23.10;18.60;;;1.10;72.80;;;;;;5031971;28;20964;-54
2023/03/10 01:22:40;;;;;;;31.83;21.23;;;1.00;72.40;;;;;;5029167;28;20863;-54
2023/03/10 01:25:09;;;;;;;26.30;19.53;;;1.10;72.40;;;;;;5032637;28;20832;-56
2023/03/10 01:27:36;;;;;;;23.27;18.70;;;1.10;72.40;;;;;;5027883;28;20498;-55
2023/03/10 01:30:03;;;;;;;24.20;18.07;;;1.00;72.30;;;;;;5030843;28;20509;-55
2023/03/10 01:32:29;;;;;;;24.60;18.97;;;1.10;72.00;;;;;;5025026;28;20459;-55
2023/03/10 01:34:57;;;;;;;25.50;19.93;;;1.10;71.90;;;;;;5027956;28;20467;-57
2023/03/10 01:37:24;;;;;;;25.07;19.87;;;1.10;72.10;;;;;;5030290;28;20514;-55
2023/03/10 01:39:51;;;;;;;22.87;18.83;;;1.00;72.60;;;;;;5029061;28;20474;-55
2023/03/10 01:42:17;;;;;;;21.80;18.30;;;1.10;72.40;;;;;;5029826;28;20495;-54
2023/03/10 01:45:03;;;;;;;21.33;17.23;;;1.10;72.20;;;;;;5031687;28;20852;-55
2023/03/10 01:47:29;;;;;;;24.00;18.40;;;1.00;72.40;;;;;;5024948;28;20487;-55
2023/03/10 01:49:58;;;;;;;23.40;17.57;;;1.10;72.50;;;;;;5030158;28;20463;-57
2023/03/10 01:52:28;;;;;;;20.17;16.73;;;1.10;72.10;;;;;;5032892;28;20513;-54
2023/03/10 01:54:59;;;;;;;19.10;16.70;;;1.00;72.00;;;;;;5028302;28;20463;-55
2023/03/10 01:57:29;;;;;;;24.33;17.57;;;1.10;72.10;;;;;;5026563;28;21015;-55
2023/03/10 01:59:57;;;;;;;22.10;17.97;;;1.10;72.00;;;;;;5030882;28;20459;-56
2023/03/10 02:02:25;;;;;;;20.50;16.97;;;1.10;71.90;;;;;;5031138;28;20521;-57
2023/03/10 02:04:53;;;;;;;21.23;16.93;;;1.10;71.80;;;;;;5031345;28;20553;-55
2023/03/10 02:07:26;;;;;;;18.17;15.23;;;1.10;71.70;;;;;;5021746;28;20480;-55
2023/03/10 02:09:54;;;;;;;28.93;17.33;;;1.10;71.80;;;;;;5026369;28;20459;-56
2023/03/10 02:12:20;;;;;;;20.83;16.57;;;1.10;71.80;;;;;;5027392;28;20463;-56
2023/03/10 02:14:48;;;;;;;20.77;16.87;;;1.10;71.60;;;;;;5029014;28;20463;-56
2023/03/10 02:17:18;;;;;;;17.30;15.00;;;1.10;71.50;;;;;;5027368;28;20463;-55
2023/03/10 02:20:01;;;;;;;20.17;15.23;;;1.10;71.60;;;;;;5030563;28;20952;-56
2023/03/10 02:22:29;;;;;;;18.77;16.30;;;1.10;69.60;;;;;;5028262;28;20991;-56
2023/03/10 02:25:04;;;;;;;18.73;14.43;;;1.10;71.40;;;;;;5021783;28;20459;-55
2023/03/10 02:27:34;;;;;;;15.60;13.43;;;1.10;71.40;;;;;;5029098;28;20948;-56
2023/03/10 02:30:05;;;;;;;19.17;15.70;;;1.10;71.40;;;;;;5028108;28;20459;-56
2023/03/10 02:32:36;;;;;;;17.53;13.90;;;1.10;71.40;;;;;;5028553;28;20455;-56
2023/03/10 02:35:03;;;;;;;17.07;14.27;;;1.10;71.60;;;;;;5031004;28;20457;-55
2023/03/10 02:37:32;;;;;;;14.63;13.07;;;1.10;71.50;;;;;;5026253;28;20975;-57
2023/03/10 02:39:59;;;;;;;15.23;12.80;;;1.10;71.60;;;;;;5030503;28;20820;-57
2023/03/10 02:42:30;;;;;;;15.07;12.70;;;1.10;71.40;;;;;;5029797;28;20467;-56
2023/03/10 02:44:58;;;;;;;14.23;12.70;;;1.10;71.40;;;;;;5023843;28;20558;-57
2023/03/10 02:47:25;;;;;;;13.20;11.83;;;1.10;70.50;;;;;;5028078;28;20463;-56
2023/03/10 02:49:51;;;;;;;15.30;13.50;;;1.10;71.30;;;;;;5025138;28;20503;-57
2023/03/10 02:52:26;;;;;;;12.57;11.20;;;1.10;71.20;;;;;;5022105;28;20459;-56
2023/03/10 02:54:52;;;;;;;12.73;11.00;;;1.10;71.10;;;;;;5020254;28;20460;-54
2023/03/10 02:57:19;;;;;;;12.43;11.03;;;1.10;71.20;;;;;;5027358;28;20483;-55
2023/03/10 02:59:46;;;;;;;12.53;11.07;;;1.10;71.40;;;;;;5026206;28;20463;-55
2023/03/10 03:02:14;;;;;;;11.70;10.50;;;1.10;71.30;;;;;;5029991;28;20471;-55
2023/03/10 03:04:40;;;;;;;11.17;9.93;;;1.10;71.30;;;;;;5021274;28;20459;-55
2023/03/10 03:07:07;;;;;;;10.90;9.80;;;1.00;71.40;;;;;;5023634;28;20463;-56
2023/03/10 03:09:34;;;;;;;10.90;9.80;;;1.10;71.50;;;;;;5028935;28;20459;-56
2023/03/10 03:12:00;;;;;;;12.20;10.37;;;1.10;71.30;;;;;;5029114;28;20458;-55
2023/03/10 03:14:27;;;;;;;10.63;9.53;;;1.00;71.40;;;;;;5028442;28;20848;-56
2023/03/10 03:16:54;;;;;;;10.43;9.43;;;1.10;71.40;;;;;;5030475;28;20467;-56
2023/03/10 03:19:22;;;;;;;9.97;9.00;;;1.00;71.00;;;;;;5020348;28;20989;-55
2023/03/10 03:21:49;;;;;;;10.67;9.57;;;1.00;71.40;;;;;;5024544;28;20471;-55
2023/03/10 03:24:16;;;;;;;9.10;8.10;;;1.10;71.40;;;;;;5029680;28;20439;-56
2023/03/10 03:26:43;;;;;;;9.70;8.70;;;1.00;71.40;;;;;;5031223;28;20959;-55
2023/03/10 03:29:10;;;;;;;8.73;7.93;;;1.10;71.30;;;;;;5028604;28;20483;-56
2023/03/10 03:31:38;;;;;;;10.80;9.70;;;1.10;71.30;;;;;;5029215;28;20546;-56
2023/03/10 03:34:05;;;;;;;8.97;8.17;;;1.00;71.20;;;;;;5029851;28;20517;-55
2023/03/10 03:36:33;;;;;;;10.47;8.80;;;1.00;71.40;;;;;;5030208;28;20451;-55
2023/03/10 03:39:00;;;;;;;8.67;7.80;;;1.10;71.30;;;;;;5022510;28;20494;-55
2023/03/10 03:41:27;;;;;;;8.63;7.83;;;1.10;71.40;;;;;;5033510;28;20459;-56
2023/03/10 03:43:53;;;;;;;9.83;8.60;;;1.10;71.30;;;;;;5033421;28;20463;-56
2023/03/10 03:46:20;;;;;;;8.20;7.47;;;1.10;71.40;;;;;;5031526;28;20455;-56
2023/03/10 03:48:46;;;;;;;8.93;8.00;;;1.10;71.00;;;;;;5029225;28;20560;-55
2023/03/10 03:51:13;;;;;;;8.43;7.63;;;1.10;71.00;;;;;;5033841;28;20455;-54
2023/03/10 03:53:41;;;;;;;8.40;7.60;;;1.10;70.60;;;;;;5027772;28;20862;-56
2023/03/10 03:56:08;;;;;;;8.70;7.87;;;1.10;70.70;;;;;;5025726;28;20972;-56
2023/03/10 03:58:35;;;;;;;7.80;7.10;;;1.10;70.30;;;;;;5030060;28;20989;-54
2023/03/10 04:01:01;;;;;;;8.07;7.33;;;1.00;70.50;;;;;;5032951;28;20470;-55
2023/03/10 04:03:28;;;;;;;7.37;6.70;;;1.00;71.20;;;;;;5027716;28;21018;-54
2023/03/10 04:05:54;;;;;;;7.17;6.40;;;1.00;71.30;;;;;;5032920;28;20540;-55
2023/03/10 04:08:21;;;;;;;7.60;6.90;;;1.10;70.50;;;;;;5026882;28;20529;-55
2023/03/10 04:10:52;;;;;;;7.50;6.70;;;1.10;70.90;;;;;;5027284;28;20961;-55
2023/03/10 04:13:18;;;;;;;6.80;6.20;;;1.10;70.90;;;;;;5033855;28;20439;-54
2023/03/10 04:15:45;;;;;;;8.70;7.50;;;1.10;70.80;;;;;;5034634;28;20451;-56
2023/03/10 04:18:12;;;;;;;9.27;7.43;;;1.10;71.00;;;;;;5029619;28;21009;-54
2023/03/10 04:20:38;;;;;;;7.80;6.63;;;1.10;70.50;;;;;;5033727;28;21070;-54
2023/03/10 04:23:05;;;;;;;6.13;5.63;;;1.10;70.60;;;;;;5031705;28;20521;-56
2023/03/10 04:25:32;;;;;;;6.87;6.27;;;1.20;70.10;;;;;;5033530;28;20497;-55
2023/03/10 04:27:59;;;;;;;8.77;6.20;;;1.10;70.20;;;;;;5030233;28;20568;-56
2023/03/10 04:30:28;;;;;;;6.90;6.20;;;1.10;69.70;;;;;;5032210;28;20454;-54
2023/03/10 04:32:57;;;;;;;6.30;5.70;;;1.10;69.80;;;;;;5031977;28;20459;-54
2023/03/10 04:35:24;;;;;;;5.83;5.27;;;1.00;70.30;;;;;;5032481;28;20455;-56
2023/03/10 04:37:50;;;;;;;6.00;5.50;;;1.10;70.50;;;;;;5033007;28;20536;-56
2023/03/10 04:40:17;;;;;;;6.53;5.90;;;1.10;70.60;;;;;;5032466;28;20486;-55
2023/03/10 04:42:43;;;;;;;5.80;5.30;;;1.10;70.70;;;;;;5033660;28;20459;-56
2023/03/10 04:45:12;;;;;;;5.73;5.10;;;1.10;70.90;;;;;;5031118;28;20467;-55
2023/03/10 04:47:39;;;;;;;5.80;5.30;;;1.20;70.80;;;;;;5026246;28;20483;-56
2023/03/10 04:50:07;;;;;;;5.20;4.80;;;1.10;70.00;;;;;;5031599;28;20459;-56
2023/03/10 04:52:33;;;;;;;5.53;5.03;;;1.20;70.20;;;;;;5031007;28;20513;-56
2023/03/10 04:55:00;;;;;;;5.97;5.37;;;1.20;70.40;;;;;;5031828;28;20819;-54
2023/03/10 04:57:26;;;;;;;5.43;4.90;;;1.10;69.30;;;;;;5028193;28;20541;-57
2023/03/10 04:59:53;;;;;;;5.73;5.23;;;1.10;70.00;;;;;;5029755;28;20902;-56
2023/03/10 05:02:21;;;;;;;5.40;4.90;;;1.10;69.70;;;;;;5024528;28;20511;-55
2023/03/10 05:04:48;;;;;;;5.23;4.83;;;1.20;70.30;;;;;;5033717;28;20593;-55
2023/03/10 05:07:14;;;;;;;6.07;5.50;;;1.10;69.20;;;;;;5031774;28;20823;-55
2023/03/10 05:09:41;;;;;;;5.73;5.20;;;1.10;69.60;;;;;;5033341;28;20455;-55
2023/03/10 05:12:08;;;;;;;5.20;4.80;;;1.10;70.40;;;;;;5026024;28;20546;-56
2023/03/10 05:14:36;;;;;;;6.00;5.40;;;1.10;71.40;;;;;;5026346;28;20471;-55
2023/03/10 05:17:02;;;;;;;5.37;4.97;;;1.10;71.20;;;;;;5031428;28;20512;-56
2023/03/10 05:19:30;;;;;;;7.40;5.50;;;1.10;70.60;;;;;;5025186;28;20491;-52
2023/03/10 05:21:57;;;;;;;5.10;4.60;;;1.20;71.20;;;;;;5022328;28;20521;-52
2023/03/10 05:24:24;;;;;;;5.37;4.87;;;1.20;70.70;;;;;;5027529;28;20808;-52
2023/03/10 05:26:51;;;;;;;5.40;4.90;;;1.20;70.70;;;;;;5028484;28;20463;-53
2023/03/10 05:29:19;;;;;;;6.10;4.47;;;1.20;71.00;;;;;;5031455;28;21000;-52
2023/03/10 05:31:46;;;;;;;4.73;4.30;;;1.20;71.00;;;;;;5026408;28;20478;-52
2023/03/10 05:34:13;;;;;;;5.33;4.93;;;1.20;70.20;;;;;;5029536;28;20464;-52
2023/03/10 05:36:42;;;;;;;4.70;4.40;;;1.20;68.90;;;;;;5031142;28;20456;-54
2023/03/10 05:39:09;;;;;;;5.63;4.93;;;1.20;70.10;;;;;;5029471;28;20569;-54
2023/03/10 05:41:37;;;;;;;5.43;4.93;;;1.20;69.90;;;;;;5031435;28;20517;-55
2023/03/10 05:44:04;;;;;;;4.83;4.43;;;1.20;70.20;;;;;;5029870;28;20557;-51
2023/03/10 05:46:30;;;;;;;5.00;4.53;;;1.30;70.50;;;;;;5028473;28;20458;-53
2023/03/10 05:48:57;;;;;;;5.70;5.20;;;1.20;69.40;;;;;;5027922;28;20977;-53
2023/03/10 05:51:24;;;;;;;8.17;5.33;;;1.20;70.20;;;;;;5023742;28;20509;-53
2023/03/10 05:53:52;;;;;;;5.10;4.70;;;1.30;69.20;;;;;;5031048;28;20455;-53
2023/03/10 05:56:19;;;;;;;5.23;4.73;;;1.20;68.70;;;;;;5027952;28;20463;-54
2023/03/10 05:58:47;;;;;;;5.17;4.77;;;1.20;69.30;;;;;;5023450;28;20866;-54
2023/03/10 06:01:14;;;;;;;5.43;4.93;;;1.30;69.80;;;;;;5031981;28;20443;-54
2023/03/10 06:03:41;;;;;;;4.87;4.47;;;1.30;69.50;;;;;;5031452;28;20463;-53
2023/03/10 06:06:08;;;;;;;5.50;4.77;;;1.30;68.30;;;;;;5029217;28;20498;-54
2023/03/10 06:08:35;;;;;;;4.60;4.30;;;1.20;65.40;;;;;;5028149;28;21044;-53
2023/03/10 06:11:03;;;;;;;5.73;5.07;;;1.30;68.50;;;;;;5030628;28;20517;-54
2023/03/10 06:13:30;;;;;;;4.77;4.37;;;1.30;67.90;;;;;;5030029;28;21442;-53
2023/03/10 06:15:59;;;;;;;8.17;4.53;;;1.30;67.40;;;;;;5028268;28;20505;-54
2023/03/10 06:18:27;;;;;;;5.77;4.50;;;1.30;68.10;;;;;;5027264;28;20487;-52
2023/03/10 06:20:54;;;;;;;5.17;4.50;;;1.30;67.50;;;;;;5024316;28;20448;-52
2023/03/10 06:23:21;;;;;;;4.53;4.13;;;1.30;67.70;;;;;;5026932;28;20455;-52
2023/03/10 06:25:57;;;;;;;5.40;4.43;;;1.30;67.60;;;;;;5026126;28;20981;-55
2023/03/10 06:28:25;;;;;;;4.50;4.13;;;1.40;67.40;;;;;;5031002;28;20479;-52
2023/03/10 06:30:55;;;;;;;5.70;5.23;;;1.30;66.50;;;;;;5030917;28;20463;-54
2023/03/10 06:33:22;;;;;;;5.10;4.70;;;1.40;67.30;;;;;;5029442;28;21115;-54
2023/03/10 06:35:48;;;;;;;4.47;3.90;;;1.40;67.10;;;;;;5025202;28;20525;-53
2023/03/10 06:38:15;;;;;;;4.70;4.20;;;1.50;66.30;;;;;;5030612;28;20459;-53
2023/03/10 06:40:42;;;;;;;5.63;4.57;;;1.50;63.50;;;;;;5025482;28;20535;-53
2023/03/10 06:43:08;;;;;;;4.90;4.50;;;1.50;65.70;;;;;;5029302;28;20459;-53
2023/03/10 06:45:36;;;;;;;4.70;4.20;;;1.60;65.00;;;;;;5026981;28;20519;-53
2023/03/10 06:48:03;;;;;;;4.17;3.80;;;1.60;64.20;;;;;;5029860;28;20513;-51
2023/03/10 06:50:30;;;;;;;5.10;4.60;;;1.60;63.70;;;;;;5032079;28;20447;-54
2023/03/10 06:52:57;;;;;;;4.40;4.00;;;1.60;63.60;;;;;;5030862;28;20507;-54
2023/03/10 06:55:23;;;;;;;4.53;4.13;;;1.60;62.90;;;;;;5028269;28;20509;-52
2023/03/10 06:57:50;;;;;;;4.80;4.30;;;1.60;63.10;;;;;;5024767;28;20480;-53
2023/03/10 07:00:18;;;;;;;4.53;3.93;;;1.60;62.40;;;;;;5028022;28;20484;-53
2023/03/10 07:02:46;;;;;;;3.77;3.50;;;1.70;62.20;;;;;;5032065;28;20533;-53
2023/03/10 07:05:14;;;;;;;4.00;3.67;;;1.60;62.00;;;;;;5026819;28;20509;-53
2023/03/10 07:07:41;;;;;;;3.60;3.30;;;1.70;61.60;;;;;;5030854;28;20487;-53
2023/03/10 07:10:08;;;;;;;6.00;3.50;;;1.70;61.50;;;;;;5026907;28;20880;-52
2023/03/10 07:12:35;;;;;;;3.90;3.67;;;1.70;61.10;;;;;;5023519;28;20467;-54
2023/03/10 07:15:02;;;;;;;6.40;4.70;;;1.70;60.90;;;;;;5023340;28;20463;-53
2023/03/10 07:17:28;;;;;;;4.43;4.13;;;1.70;60.80;;;;;;5029644;28;20467;-53
2023/03/10 07:19:57;;;;;;;4.17;3.87;;;1.70;60.40;;;;;;5024921;28;21048;-54
2023/03/10 07:22:23;;;;;;;3.87;3.57;;;1.70;60.80;;;;;;5027973;28;20463;-53
2023/03/10 07:24:53;;;;;;;7.77;6.93;;;1.70;60.60;;;;;;5027775;28;20467;-53
2023/03/10 07:27:19;;;;;;;4.00;3.70;;;1.80;60.40;;;;;;5029414;28;20517;-52
2023/03/10 07:29:46;;;;;;;5.10;4.60;;;1.80;60.20;;;;;;5021788;28;20460;-54
2023/03/10 07:32:13;;;;;;;9.43;7.80;;;1.80;59.90;;;;;;5017732;28;20467;-52
2023/03/10 07:34:39;;;;;;;7.10;5.40;;;1.90;59.70;;;;;;5029218;28;20459;-52
2023/03/10 07:37:08;;;;;;;4.33;3.93;;;1.80;59.60;;;;;;5022793;28;20468;-53
2023/03/10 07:39:35;;;;;;;5.00;4.60;;;1.80;59.70;;;;;;5024715;28;20486;-52
2023/03/10 07:42:01;;;;;;;4.67;4.17;;;1.90;59.80;;;;;;5029059;28;20505;-53
2023/03/10 07:44:28;;;;;;;4.60;4.20;;;1.90;59.10;;;;;;5030428;28;20443;-54
2023/03/10 07:46:54;;;;;;;6.03;5.53;;;1.90;58.70;;;;;;5028284;28;20463;-54
2023/03/10 07:49:21;;;;;;;6.97;6.27;;;1.90;58.70;;;;;;5019489;28;20532;-54
2023/03/10 07:51:48;;;;;;;4.53;3.90;;;1.90;58.90;;;;;;5025699;28;20463;-53
2023/03/10 07:54:16;;;;;;;4.50;4.10;;;1.90;58.70;;;;;;5027531;28;20471;-54
2023/03/10 07:56:42;;;;;;;3.93;3.63;;;1.90;58.30;;;;;;5018089;28;20525;-53
2023/03/10 07:59:09;;;;;;;5.30;4.03;;;2.00;58.40;;;;;;5029362;28;21047;-60
2023/03/10 08:01:35;;;;;;;3.60;3.40;;;2.00;58.20;;;;;;5028620;28;20463;-53
2023/03/10 08:04:02;;;;;;;3.70;3.40;;;1.90;58.50;;;;;;5022912;28;20462;-53
2023/03/10 08:06:29;;;;;;;4.27;3.87;;;1.90;58.70;;;;;;5021243;28;20470;-54
2023/03/10 08:08:56;;;;;;;4.50;4.20;;;2.00;58.30;;;;;;5030744;28;21027;-53
2023/03/10 08:11:25;;;;;;;6.73;5.73;;;1.90;58.30;;;;;;5028111;28;20551;-53
2023/03/10 08:13:52;;;;;;;4.60;4.20;;;2.00;58.10;;;;;;5028695;28;20471;-54
2023/03/10 08:16:21;;;;;;;8.40;3.50;;;2.10;57.60;;;;;;5029484;28;21070;-52
2023/03/10 08:18:50;;;;;;;3.50;3.30;;;2.00;57.20;;;;;;5028758;28;20491;-52
2023/03/10 08:21:16;;;;;;;5.57;5.10;;;2.10;57.10;;;;;;5022461;28;20486;-53
2023/03/10 08:23:43;;;;;;;8.23;5.53;;;2.10;57.00;;;;;;5030853;28;20443;-52
2023/03/10 08:26:14;;;;;;;5.10;4.67;;;2.10;57.40;;;;;;5032001;28;20501;-53
2023/03/10 08:28:42;;;;;;;3.40;3.20;;;2.10;56.80;;;;;;5032851;28;20536;-52
2023/03/10 08:31:10;;;;;;;4.33;4.00;;;2.10;55.10;;;;;;5029996;28;20467;-53
2023/03/10 08:33:37;;;;;;;6.10;3.53;;;2.20;56.40;;;;;;5027330;28;20949;-52
2023/03/10 08:36:07;;;;;;;3.80;3.60;;;2.20;56.10;;;;;;5033472;28;20467;-52
2023/03/10 08:38:34;;;;;;;6.73;5.97;;;2.20;56.10;;;;;;5025962;28;20463;-51
2023/03/10 08:41:09;;;;;;;3.87;3.47;;;2.20;55.80;;;;;;5030785;28;20482;-52
2023/03/10 08:43:36;;;;;;;3.90;3.60;;;2.30;55.70;;;;;;5026112;28;20473;-54
2023/03/10 08:46:05;;;;;;;3.67;3.47;;;2.20;55.50;;;;;;5033109;28;20460;-53
2023/03/10 08:48:32;;;;;;;3.73;3.43;;;2.30;55.40;;;;;;5031537;28;20479;-52
2023/03/10 08:50:59;;;;;;;3.47;3.17;;;2.30;55.20;;;;;;5031325;28;20945;-52
2023/03/10 08:53:26;;;;;;;3.20;3.00;;;2.40;54.70;;;;;;5030332;28;20455;-52
2023/03/10 08:55:52;;;;;;;3.97;3.13;;;2.40;54.90;;;;;;5023565;28;20520;-53
2023/03/10 08:58:19;;;;;;;3.20;3.00;;;2.40;53.00;;;;;;5031908;28;20525;-52
2023/03/10 09:00:45;;;;;;;3.50;3.20;;;2.40;54.90;;;;;;5028824;28;20487;-53
2023/03/10 09:03:14;;;;;;;3.03;2.83;;;2.30;58.40;;;;;;5026575;28;20471;-53
2023/03/10 09:05:41;;;;;;;4.10;3.70;;;2.30;55.40;;;;;;5025462;28;20464;-53
2023/03/10 09:08:07;;;;;;;5.23;4.10;;;2.20;58.20;;;;;;5032846;28;20479;-52
2023/03/10 09:10:34;;;;;;;3.70;3.07;;;2.30;55.50;;;;;;5029513;28;20452;-51
2023/03/10 09:13:01;;;;;;;3.00;2.80;;;2.40;55.20;;;;;;5029502;28;20459;-53
2023/03/10 09:15:27;;;;;;;3.50;3.27;;;2.40;55.50;;;;;;5025166;28;20521;-51
2023/03/10 09:17:54;;;;;;;5.50;5.10;;;2.40;54.80;;;;;;5026715;28;20499;-52
2023/03/10 09:20:24;;;;;;;3.53;3.30;;;2.50;54.20;;;;;;5025547;28;21011;-53
2023/03/10 09:22:51;;;;;;;5.30;4.87;;;2.50;53.80;;;;;;5026344;28;20988;-52
2023/03/10 09:25:18;;;;;;;4.77;4.33;;;2.60;53.30;;;;;;5030292;28;20459;-53
2023/03/10 09:27:45;;;;;;;3.90;3.60;;;2.60;53.00;;;;;;5032317;28;20509;-52
2023/03/10 09:30:12;;;;;;;3.63;3.30;;;2.60;52.80;;;;;;5033171;28;20513;-52
2023/03/10 09:32:39;;;;;;;3.80;3.50;;;2.70;52.20;;;;;;5031580;28;20463;-52
2023/03/10 09:35:06;;;;;;;4.37;4.07;;;2.70;52.40;;;;;;5030970;28;20468;-52
2023/03/10 09:37:34;;;;;;;8.20;6.67;;;2.70;51.90;;;;;;5030965;28;20510;-53
2023/03/10 09:40:01;;;;;;;13.00;11.80;;;2.80;51.60;;;;;;5024505;28;20518;-52
2023/03/10 09:42:40;;;;;;;6.87;6.27;;;2.80;51.30;;;;;;5025338;28;20463;-53
2023/03/10 09:45:19;;;;;;;5.20;4.27;;;2.90;50.80;;;;;;5026092;28;20459;-52
2023/03/10 09:47:55;;;;;;;3.50;3.23;;;2.90;50.40;;;;;;5022623;28;20852;-52
2023/03/10 09:50:31;;;;;;;3.60;3.30;;;3.00;49.70;;;;;;5028831;28;20505;-53
2023/03/10 09:53:07;;;;;;;4.63;4.10;;;3.10;48.90;;;;;;5026074;28;20469;-51
2023/03/10 09:55:36;;;;;;;4.93;4.30;;;3.10;51.30;;;;;;5025669;28;20953;-51
2023/03/10 09:58:03;;;;;;;3.70;3.50;;;3.10;49.20;;;;;;5017312;28;20491;-52
2023/03/10 10:00:35;;;;;;;5.10;4.40;;;3.20;49.60;;;;;;5020871;28;20491;-51
2023/03/10 10:03:06;;;;;;;13.30;6.57;;;3.00;52.50;;;;;;5017915;28;20463;-52
2023/03/10 10:05:36;;;;;;;6.83;5.07;;;3.20;48.60;;;;;;5022665;28;20525;-52
2023/03/10 10:08:14;;;;;;;13.67;7.90;;;3.40;47.30;;;;;;5023629;28;21042;-53
2023/03/10 10:10:42;;;;;;;7.43;6.70;;;3.40;46.00;;;;;;5024263;28;20502;-52
2023/03/10 10:13:13;;;;;;;7.07;6.30;;;3.30;50.10;;;;;;5027238;28;20485;-52
2023/03/10 10:15:43;;;;;;;7.83;6.90;;;3.30;53.60;;;;;;5022638;28;20486;-52
2023/03/10 10:18:26;;;;;;;5.60;5.10;;;3.30;51.40;;;;;;5024904;28;20492;-52
2023/03/10 10:20:59;;;;;;;4.83;4.43;;;3.30;52.60;;;;;;5029591;28;20482;-52
2023/03/10 10:23:32;;;;;;;4.17;3.70;;;3.40;50.90;;;;;;5016178;28;20460;-52
2023/03/10 10:26:08;;;;;;;4.43;4.03;;;3.50;50.30;;;;;;5028170;28;20925;-52
2023/03/10 10:28:41;;;;;;;3.70;3.40;;;3.60;46.50;;;;;;5027341;28;21002;-51
2023/03/10 10:31:13;;;;;;;8.30;7.60;;;3.70;49.60;;;;;;5028752;28;20539;-52
2023/03/10 10:33:59;;;;;;;5.27;4.30;;;3.80;47.80;;;;;;5027957;28;20474;-52
2023/03/10 10:36:28;;;;;;;4.40;4.00;;;3.80;48.10;;;;;;5023075;28;20948;-52
2023/03/10 10:38:57;;;;;;;6.77;6.07;;;3.60;59.50;;;;;;5027496;28;20478;-52
2023/03/10 10:41:27;;;;;;;5.97;5.47;;;3.80;51.10;;;;;;5028693;28;20566;-52
2023/03/10 10:43:58;;;;;;;4.70;4.30;;;3.80;51.20;;;;;;5031851;28;20594;-53
2023/03/10 10:46:28;;;;;;;10.93;4.67;;;3.90;50.00;;;;;;5014150;28;20470;-52
2023/03/10 10:49:06;;;;;;;8.87;6.40;;;4.00;51.60;;;;;;5027997;28;20490;-52
2023/03/10 10:51:36;;;;;;;5.10;4.60;;;4.00;58.50;;;;;;5023881;28;20538;-52
2023/03/10 10:54:21;;;;;;;6.63;6.03;;;4.00;56.00;;;;;;5027000;28;21050;-52
2023/03/10 10:56:58;;;;;;;12.17;9.00;;;4.20;51.10;;;;;;5028562;28;21147;-51
2023/03/10 10:59:31;;;;;;;6.20;5.60;;;4.30;51.50;;;;;;5027379;28;20483;-52
2023/03/10 11:01:59;;;;;;;4.73;4.33;;;4.40;51.00;;;;;;5028868;28;20479;-51
2023/03/10 11:04:28;;;;;;;5.67;5.17;;;4.40;53.50;;;;;;5026509;28;20467;-52
2023/03/10 11:07:10;;;;;;;5.10;4.63;;;4.50;57.60;;;;;;5030714;28;20462;-52
2023/03/10 11:09:39;;;;;;;6.90;5.50;;;4.60;54.90;;;;;;5034209;28;20469;-51
2023/03/10 11:12:11;;;;;;;6.63;6.00;;;4.40;69.60;;;;;;5027712;28;20910;-51
2023/03/10 11:14:51;;;;;;;8.00;6.57;;;4.50;61.30;;;;;;5027251;28;20463;-51
2023/03/10 11:17:24;;;;;;;7.67;6.93;;;4.50;58.50;;;;;;5017976;28;20466;-53
2023/03/10 11:19:58;;;;;;;6.20;5.60;;;4.60;57.00;;;;;;5023087;28;20513;-52
2023/03/10 11:22:33;;;;;;;6.20;5.60;;;4.70;54.70;;;;;;5026541;28;20513;-51
2023/03/10 11:25:14;;;;;;;11.90;7.93;;;4.70;59.70;;;;;;5026439;28;20657;-51
2023/03/10 11:27:48;;;;;;;7.10;6.30;;;4.70;59.70;;;;;;5016551;28;20487;-52
2023/03/10 11:30:17;;;;;;;7.77;7.00;;;4.80;58.00;;;;;;5030461;28;20490;-52
2023/03/10 11:32:59;;;;;;;6.70;6.07;;;4.80;58.80;;;;;;5030120;28;20512;-51
2023/03/10 11:35:31;;;;;;;6.47;5.87;;;4.70;59.90;;;;;;5015647;28;20499;-51
2023/03/10 11:38:10;;;;;;;6.63;6.03;;;4.70;55.50;;;;;;5022514;28;20479;-52
2023/03/10 11:40:46;;;;;;;7.10;6.40;;;4.80;47.10;;;;;;5023381;28;20502;-51
2023/03/10 11:43:23;;;;;;;11.17;7.93;;;4.90;45.40;;;;;;5021502;28;20731;-52
2023/03/10 11:45:53;;;;;;;10.30;9.10;;;5.00;44.60;;;;;;5016866;28;20498;-51
2023/03/10 11:48:41;;;;;;;11.53;9.67;;;5.10;42.10;;;;;;5016633;28;20485;-52
2023/03/10 11:51:15;;;;;;;7.50;6.80;;;5.10;42.30;;;;;;5010157;28;20617;-52
2023/03/10 11:53:46;;;;;;;9.90;7.10;;;5.00;50.50;;;;;;5024226;28;20904;-52
2023/03/10 11:56:17;;;;;;;17.30;13.93;;;5.10;49.40;;;;;;5022501;28;20463;-52
2023/03/10 11:58:48;;;;;;;13.27;9.87;;;5.10;51.40;;;;;;5027243;28;20491;-52
2023/03/10 12:01:18;;;;;;;7.90;7.20;;;5.20;49.40;;;;;;5023222;28;21325;-52
2023/03/10 12:03:52;;;;;;;12.80;7.60;;;5.30;49.00;;;;;;5031451;28;20467;-52
2023/03/10 12:06:23;;;;;;;8.50;7.60;;;5.30;53.50;;;;;;5032662;28;20509;-52
2023/03/10 12:08:55;;;;;;;12.80;8.43;;;5.20;52.10;;;;;;5032636;28;20529;-52
2023/03/10 12:11:26;;;;;;;9.40;8.40;;;5.20;49.70;;;;;;5032389;28;20455;-51
2023/03/10 12:13:58;;;;;;;14.23;8.63;;;5.10;51.30;;;;;;5023725;28;20443;-52
2023/03/10 12:16:27;;;;;;;10.83;7.50;;;5.30;47.30;;;;;;5024131;28;20473;-52
2023/03/10 12:18:54;;;;;;;9.20;8.30;;;5.20;56.50;;;;;;5029444;28;21145;-51
2023/03/10 12:21:24;;;;;;;10.10;7.43;;;5.20;52.30;;;;;;5031298;28;20479;-52
2023/03/10 12:23:52;;;;;;;10.00;9.00;;;5.20;52.10;;;;;;5032466;28;20517;-52
2023/03/10 12:26:56;;;;;;;12.37;9.53;;;5.10;64.30;;;;;;5034607;28;20820;-52
2023/03/10 12:29:33;;;;;;;10.30;8.37;;;5.00;58.50;;;;;;5043490;22;20502;-51
2023/03/10 12:32:00;;;;;;;11.13;8.73;;;5.20;55.00;;;;;;5030726;28;20458;-51
2023/03/10 12:34:30;;;;;;;8.60;7.70;;;5.20;52.00;;;;;;5024237;28;20491;-50
2023/03/10 12:37:04;;;;;;;10.07;7.90;;;5.20;55.00;;;;;;5026912;28;20455;-50
2023/03/10 12:39:37;;;;;;;10.93;7.20;;;5.10;58.40;;;;;;5027996;28;20513;-50
2023/03/10 12:42:05;;;;;;;11.43;10.27;;;5.00;58.20;;;;;;5027059;28;21093;-50
2023/03/10 12:44:51;;;;;;;10.90;9.27;;;4.90;55.30;;;;;;5030449;28;20455;-51
2023/03/10 12:47:35;;;;;;;11.77;8.60;;;4.80;47.80;;;;;;5031371;28;20493;-50
2023/03/10 12:50:14;;;;;;;11.40;8.87;;;4.80;53.40;;;;;;5027761;28;20491;-50
2023/03/10 12:52:51;;;;;;;10.10;8.57;;;5.00;42.30;;;;;;5024548;28;20478;-50
2023/03/10 12:55:21;;;;;;;16.33;12.27;;;4.90;45.00;;;;;;5024461;28;20513;-51
2023/03/10 12:58:00;;;;;;;11.77;9.90;;;4.80;54.00;;;;;;5031353;28;20471;-50
2023/03/10 13:00:38;;;;;;;15.50;9.77;;;4.70;48.50;;;;;;5026730;28;20482;-50